Latest Coastal Weather Observations for Port Pirie Airport AWS***

IDS60701

Issued at 6:25 pm CST Tuesday 29 July 2014 (issued every 10 minutes, with the page automatically refreshed every 10 minutes)

About coastal observations | Map of coastal stations | Coastal observations for SA | Marine services | Other Formats
Station Details ID: 250006 Name: PORT PIRIE AERODROME AWS Lat: -33.23 Lon: 138.00 Height: 10.0 m
Data from the previous 72 hours. | See also: Recent months for locations in South Australia
Date/Time
CST
Temp

°C
Wind Pressure Rain
since 9am
mm
Weather Cloud Vis
km
Sea
Height
m
Swell
Dir
 
Speed
knots
Gust
knots
hPa Trend Height
m
Period
s
Dir
29/06:00pm 13.8 NE 1 2 - - 0.0 - - - - - - -
29/05:30pm 16.4 WNW 2 5 - - 0.0 - - - - - - -
29/05:00pm 18.6 NW 5 8 - - 0.0 - - - - - - -
29/04:30pm 19.7 NNW 5 9 - - 0.0 - - - - - - -
29/04:00pm 19.7 NNW 7 11 - - 0.0 - - - - - - -
29/03:30pm 20.2 NW 8 13 - - 0.0 - - - - - - -
29/03:00pm 19.9 NW 10 14 - - 0.0 - - - - - - -
29/02:30pm 20.5 NW 9 13 - - 0.0 - - - - - - -
29/02:00pm 19.7 NW 9 14 - - 0.0 - - - - - - -
29/01:30pm 19.9 NW 9 15 - - 0.0 - - - - - - -
29/01:00pm 18.7 NNW 8 14 - - 0.0 - - - - - - -
29/12:30pm 18.4 NNW 9 15 - - 0.0 - - - - - - -
29/12:00pm 17.9 NNW 8 13 - - 0.0 - - - - - - -
29/11:30am 17.3 NNW 8 14 - - 0.0 - - - - - - -
29/11:00am 15.9 NNW 9 13 - - 0.0 - - - - - - -
29/10:30am 15.6 NNW 10 15 - - 0.0 - - - - - - -
29/10:00am 14.9 NNW 10 16 - - 0.0 - - - - - - -
29/09:30am 14.4 NNW 11 17 - - 0.0 - - - - - - -
29/09:00am 14.2 NNW 10 14 - - 0.0 - - - - - - -
29/08:30am 12.9 N 5 9 - - 0.0 - - - - - - -
29/08:00am 12.1 N 5 10 - - 0.0 - - - - - - -
29/07:30am 11.5 N 5 8 - - 0.0 - - - - - - -
29/07:00am 11.4 N 5 8 - - 0.0 - - - - - - -
29/06:30am 10.9 N 4 6 - - 0.0 - - - - - - -
29/06:00am 10.6 NNW 4 6 - - 0.0 - - - - - - -
29/05:30am 11.9 N 6 10 - - 0.0 - - - - - - -
29/05:00am 12.2 N 5 9 - - 0.0 - - - - - - -
29/04:30am 11.9 N 6 9 - - 0.0 - - - - - - -
29/04:00am 11.6 N 7 9 - - 0.0 - - - - - - -
29/03:30am 12.6 N 6 9 - - 0.0 - - - - - - -
29/03:00am 11.7 N 6 8 - - 0.0 - - - - - - -
29/02:30am 12.4 N 5 8 - - 0.0 - - - - - - -
29/02:00am 12.4 N 5 7 - - 0.0 - - - - - - -
29/01:30am 11.5 N 5 8 - - 0.0 - - - - - - -
29/01:00am 12.2 N 4 6 - - 0.0 - - - - - - -
29/12:30am 12.7 N 5 8 - - 0.0 - - - - - - -
29/12:00am 12.7 N 4 7 - - 0.0 - - - - - - -
 
Date/Time
CST
Temp

°C
Wind Pressure Rain
since 9am
mm
Weather Cloud Vis
km
Sea
Height
m
Swell
Dir
 
Speed
knots
Gust
knots
hPa Trend Height
m
Period
s
Dir
28/11:30pm 12.3 N 4 6 - - 0.0 - - - - - - -
28/11:00pm 11.5 N 2 3 - - 0.0 - - - - - - -
28/10:30pm 9.9 N 2 3 - - 0.0 - - - - - - -
28/10:00pm 10.6 N 2 3 - - 0.0 - - - - - - -
28/09:30pm 11.2 NNW 1 2 - - 0.0 - - - - - - -
28/09:00pm 11.8 W 1 2 - - 0.0 - - - - - - -
28/08:30pm 12.1 NE 1 1 - - 0.0 - - - - - - -
28/08:00pm 11.7 CALM 0 1 - - 0.0 - - - - - - -
28/07:30pm 11.5 NE 2 2 - - 0.0 - - - - - - -
28/07:00pm 11.5 ENE 3 4 - - 0.0 - - - - - - -
28/06:30pm 12.4 SE 2 3 - - 0.0 - - - - - - -
28/06:00pm 12.9 E 3 3 - - 0.0 - - - - - - -
28/05:30pm 13.4 ESE 4 4 - - 0.0 - - - - - - -
28/05:00pm 14.9 S 3 4 - - 0.0 - - - - - - -
28/04:30pm 16.4 SSW 7 10 - - 0.0 - - - - - - -
28/04:00pm 19.1 NNW 2 3 - - 0.0 - - - - - - -
28/03:30pm 19.6 NNW 3 6 - - 0.0 - - - - - - -
28/03:00pm 20.0 N 7 12 - - 0.0 - - - - - - -
28/02:30pm 20.5 N 7 12 - - 0.0 - - - - - - -
28/02:00pm 19.0 N 7 13 - - 0.0 - - - - - - -
28/01:30pm 19.5 N 8 12 - - 0.0 - - - - - - -
28/01:00pm 17.6 N 8 13 - - 0.0 - - - - - - -
28/12:30pm 17.8 N 9 14 - - 0.0 - - - - - - -
28/12:00pm 16.7 N 9 17 - - 0.0 - - - - - - -
28/11:30am 17.1 N 10 18 - - 0.0 - - - - - - -
28/11:00am 16.4 N 11 16 - - 0.0 - - - - - - -
28/10:30am 15.9 N 11 19 - - 0.0 - - - - - - -
28/10:00am 14.9 N 9 15 - - 0.0 - - - - - - -
28/09:30am 14.6 N 9 16 - - 0.0 - - - - - - -
28/09:00am 14.2 N 9 16 - - 0.0 - - - - - - -
28/08:30am 14.4 N 8 14 - - 0.0 - - - - - - -
28/08:00am 13.8 N 6 11 - - 0.0 - - - - - - -
28/07:30am 12.6 N 7 13 - - 0.0 - - - - - - -
28/07:00am 12.7 N 7 14 - - 0.0 - - - - - - -
28/06:30am 13.2 N 8 15 - - 0.0 - - - - - - -
28/06:00am 13.7 N 9 14 - - 0.0 - - - - - - -
28/05:30am 13.5 N 12 19 - - 0.0 - - - - - - -
28/05:00am 13.5 N 12 17 - - 0.0 - - - - - - -
28/04:30am 12.9 N 10 16 - - 0.0 - - - - - - -
28/04:00am 12.5 N 10 14 - - 0.0 - - - - - - -
28/03:30am 12.3 N 9 15 - - 0.0 - - - - - - -
28/03:00am 12.7 N 9 14 - - 0.0 - - - - - - -
28/02:30am 13.6 N 9 15 - - 0.0 - - - - - - -
28/02:00am 13.1 N 8 11 - - 0.0 - - - - - - -
28/01:30am 12.7 N 5 8 - - 0.0 - - - - - - -
28/01:00am 11.8 N 4 7 - - 0.0 - - - - - - -
28/12:30am 11.9 NNW 6 9 - - 0.0 - - - - - - -
28/12:00am 12.3 NNW 5 8 - - 0.0 - - - - - - -
 
Date/Time
CST
Temp

°C
Wind Pressure Rain
since 9am
mm
Weather Cloud Vis
km
Sea
Height
m
Swell
Dir
 
Speed
knots
Gust
knots
hPa Trend Height
m
Period
s
Dir
27/11:30pm 12.4 N 6 9 - - 0.0 - - - - - - -
27/11:00pm 12.7 N 6 9 - - 0.0 - - - - - - -
27/10:30pm 12.5 N 6 8 - - 0.0 - - - - - - -
27/10:00pm 14.1 N 6 10 - - 0.0 - - - - - - -
27/09:30pm 14.8 N 5 10 - - 0.0 - - - - - - -
27/09:00pm 15.4 N 6 10 - - 0.0 - - - - - - -
27/08:30pm 14.5 N 3 6 - - 0.0 - - - - - - -
27/08:00pm 13.8 N 4 6 - - 0.0 - - - - - - -
27/07:30pm 12.6 NNE 5 7 - - 0.0 - - - - - - -
27/07:00pm 12.1 NE 4 5 - - 0.0 - - - - - - -
27/06:30pm 12.1 E 4 5 - - 0.0 - - - - - - -
27/06:00pm 16.3 N 6 9 - - 0.0 - - - - - - -
27/05:30pm 17.4 N 7 11 - - 0.0 - - - - - - -
27/05:00pm 18.5 N 9 15 - - 0.0 - - - - - - -
27/04:30pm 19.6 N 9 15 - - 0.0 - - - - - - -
27/04:00pm 19.8 N 10 17 - - 0.0 - - - - - - -
27/03:30pm 20.0 N 9 19 - - 0.0 - - - - - - -
27/03:00pm 19.6 N 12 20 - - 0.0 - - - - - - -
27/02:30pm 19.7 N 11 20 - - 0.0 - - - - - - -
27/02:00pm 19.2 N 11 20 - - 0.0 - - - - - - -
27/01:30pm 18.5 N 13 23 - - 0.0 - - - - - - -
27/01:00pm 18.1 N 13 23 - - 0.0 - - - - - - -
27/12:30pm 17.8 N 13 20 - - 0.0 - - - - - - -
27/12:00pm 17.3 N 14 22 - - 0.0 - - - - - - -
27/11:30am 16.3 N 11 18 - - 0.0 - - - - - - -
27/11:00am 15.3 N 10 19 - - 0.0 - - - - - - -
27/10:30am 15.0 N 9 17 - - 0.0 - - - - - - -
27/10:00am 14.6 NNW 8 12 - - 0.0 - - - - - - -
27/09:30am 13.7 N 7 12 - - 0.0 - - - - - - -
27/09:00am 12.3 N 7 13 - - 0.0 - - - - - - -
27/08:30am 11.1 N 7 14 - - 0.0 - - - - - - -
27/08:00am 10.5 N 7 13 - - 0.0 - - - - - - -
27/07:30am 5.6 NE 5 6 - - 0.0 - - - - - - -
27/07:00am 4.3 NE 4 5 - - 0.0 - - - - - - -
27/06:30am 2.7 NE 4 5 - - 0.0 - - - - - - -
27/06:00am 6.1 N 2 4 - - 0.0 - - - - - - -
27/05:30am 3.3 NE 1 2 - - 0.0 - - - - - - -
27/05:00am 3.3 E 3 4 - - 0.0 - - - - - - -
27/04:30am 3.1 ENE 2 2 - - 0.0 - - - - - - -
27/04:00am 3.4 NNE 2 3 - - 0.0 - - - - - - -
27/03:30am 3.1 ENE 4 4 - - 0.0 - - - - - - -
27/03:00am 4.7 NE 3 4 - - 0.0 - - - - - - -
27/02:30am 7.0 N 3 4 - - 0.0 - - - - - - -
27/02:00am 3.9 WNW 1 2 - - 0.0 - - - - - - -
27/01:30am 4.1 N 1 3 - - 0.0 - - - - - - -
27/01:00am 4.5 WSW 1 1 - - 0.0 - - - - - - -
27/12:30am 4.8 NE 1 1 - - 0.0 - - - - - - -
27/12:00am 4.5 ENE 2 3 - - 0.0 - - - - - - -
 
Date/Time
CST
Temp

°C
Wind Pressure Rain
since 9am
mm
Weather Cloud Vis
km
Sea
Height
m
Swell
Dir
 
Speed
knots
Gust
knots
hPa Trend Height
m
Period
s
Dir
26/11:30pm 5.8 NE 2 2 - - 0.0 - - - - - - -
26/11:00pm 4.4 ENE 2 2 - - 0.0 - - - - - - -
26/10:30pm 5.5 E 3 3 - - 0.0 - - - - - - -
26/10:00pm 6.1 E 2 2 - - 0.0 - - - - - - -
26/09:30pm 6.2 E 2 2 - - 0.0 - - - - - - -
26/09:00pm 6.0 E 2 2 - - 0.0 - - - - - - -
26/08:30pm 7.2 ESE 1 2 - - 0.0 - - - - - - -
26/08:00pm 7.8 SE 2 3 - - 0.0 - - - - - - -
26/07:30pm 8.4 SE 1 2 - - 0.0 - - - - - - -
26/07:00pm 8.9 ESE 3 4 - - 0.0 - - - - - - -
26/06:30pm 10.4 ESE 3 4 - - 0.0 - - - - - - -

Other Formats:

Comma delimited format used in spreadsheet applications
http://www.bom.gov.au/fwo/IDS60701/IDS60701.99001.axf

JavaScript Object Notation format (JSON) in row-major order
http://www.bom.gov.au/fwo/IDS60701/IDS60701.99001.json